Shirase — JSNJ — position and weather

sailwx.info

Track history (hours):
 
Tides and Currents Weather Stations Pressure Air Temp Water Temp Dewpoint Dewpoint Depression Visibility Wind Speed Wind Dir Waves Ship Positions

Shirase

Last reported at 2018-Apr-23 02:38 UTC. Time now 2018-Jun-25 09:23 UTC.
Position N 35°29' E 139°42'.
Warning: this ship's position is months out of date.

Length 138 m.

Type: Military. MMSI: 431999533.

Date/timePositionNaut miles runAvg speedWind from/ knotsBaromVisibWave heightAir tempDewpointWater temp
2018-Apr-23 02:38N 35°29' E 139°42'0 0.1
2018-Apr-23 02:30N 35°29' E 139°42'0 0.0
2018-Apr-23 02:00N 35°29' E 139°42'0 0.0
2018-Apr-23 01:30N 35°29' E 139°42'0 0.1
2018-Apr-23 01:00N 35°29' E 139°42'2 3.9
2018-Apr-23 00:30N 35°28' E 139°42'5 9.6
2018-Apr-23 00:00N 35°24' E 139°46'611.6
2018-Apr-22 23:30N 35°19' E 139°43'3 6.4
2018-Apr-22 23:00N 35°17' E 139°39'0 0.2
2018-Apr-22 22:29N 35°17' E 139°39'0 0.0
2018-Apr-22 21:59N 35°17' E 139°39'0 0.0
2018-Apr-22 21:29N 35°17' E 139°39'  
2018-Apr-14 06:14N 35°17' E 139°39'0 0.3
2018-Apr-14 06:01N 35°17' E 139°39'2 3.7
2018-Apr-14 05:31N 35°19' E 139°40'611.0
2018-Apr-14 05:00N 35°24' E 139°43'3 6.2
2018-Apr-14 04:30N 35°26' E 139°46'3 5.3
2018-Apr-14 04:01N 35°28' E 139°48'510.2
2018-Apr-14 03:30N 35°32' E 139°51'4 8.8
2018-Apr-14 03:01N 35°35' E 139°47'  
Track history (hours):
 
Tides and Currents Weather Stations Pressure Air Temp Water Temp Dewpoint Dewpoint Depression Visibility Wind Speed Wind Dir Waves Ship Positions

Shirase

Last reported at 2018-Apr-23 02:38 UTC. Time now 2018-Jun-25 09:23 UTC.
Position N 35°29' E 139°42'.
Warning: this ship's position is months out of date.

Length 138 m.

Type: Military. MMSI: 431999533.

Date/timePositionNaut miles runAvg speedWind from/ knotsBaromVisibWave heightAir tempDewpointWater temp
2018-Apr-23 02:38N 35°29' E 139°42'0 0.1
2018-Apr-23 02:30N 35°29' E 139°42'0 0.0
2018-Apr-23 02:00N 35°29' E 139°42'0 0.0
2018-Apr-23 01:30N 35°29' E 139°42'0 0.1
2018-Apr-23 01:00N 35°29' E 139°42'2 3.9
2018-Apr-23 00:30N 35°28' E 139°42'5 9.6
2018-Apr-23 00:00N 35°24' E 139°46'611.6
2018-Apr-22 23:30N 35°19' E 139°43'3 6.4
2018-Apr-22 23:00N 35°17' E 139°39'0 0.2
2018-Apr-22 22:29N 35°17' E 139°39'0 0.0
2018-Apr-22 21:59N 35°17' E 139°39'0 0.0
2018-Apr-22 21:29N 35°17' E 139°39'  
2018-Apr-14 06:14N 35°17' E 139°39'0 0.3
2018-Apr-14 06:01N 35°17' E 139°39'2 3.7
2018-Apr-14 05:31N 35°19' E 139°40'611.0
2018-Apr-14 05:00N 35°24' E 139°43'3 6.2
2018-Apr-14 04:30N 35°26' E 139°46'3 5.3
2018-Apr-14 04:01N 35°28' E 139°48'510.2
2018-Apr-14 03:30N 35°32' E 139°51'4 8.8
2018-Apr-14 03:01N 35°35' E 139°47'  

Dump ship's entire track history